Time;durP1;ratioP1;P1;durP2;ratioP2;P2;SDS_P1;SDS_P2;PMS_P1;PMS_P2;Temp;Humidity;BMP_temperature;BMP_pressure;BME280_temperature;BME280_humidity;BME280_pressure;Samples;Min_cycle;Max_cycle;Signal;HPM_P1;HPM_P2
2023/12/01 00:02:45;;;;;;;0.30;0.30;;;;;;;;;;6293119;28;20174;-82
2023/12/01 00:05:45;;;;;;;0.30;0.30;;;;;;;;;;6293145;28;20029;-81
2023/12/01 00:08:46;;;;;;;0.30;0.30;;;;;;;;;;6274960;28;20028;-81
2023/12/01 00:11:46;;;;;;;0.20;0.20;;;;;;;;;;6274270;28;20862;-78
2023/12/01 00:14:46;;;;;;;0.30;0.30;;;;;;;;;;6282272;28;20399;-77
2023/12/01 00:17:46;;;;;;;0.30;0.30;;;;;;;;;;6287825;28;20032;-78
2023/12/01 00:20:47;;;;;;;0.30;0.30;;;;;;;;;;6291770;28;20039;-78
2023/12/01 00:23:47;;;;;;;0.23;0.23;;;;;;;;;;6306550;28;20025;-78
2023/12/01 00:26:47;;;;;;;0.30;0.30;;;;;;;;;;6291374;28;20474;-78
2023/12/01 00:29:48;;;;;;;0.30;0.30;;;;;;;;;;6266399;28;20024;-78
2023/12/01 00:32:48;;;;;;;0.20;0.20;;;;;;;;;;6292257;28;20019;-78
2023/12/01 00:35:48;;;;;;;0.27;0.27;;;;;;;;;;6291985;28;20024;-78
2023/12/01 00:38:48;;;;;;;0.20;0.20;;;;;;;;;;6273892;28;20017;-78
2023/12/01 00:41:49;;;;;;;0.20;0.20;;;;;;;;;;6260019;28;20029;-78
2023/12/01 00:44:50;;;;;;;0.20;0.20;;;;;;;;;;6291870;28;20021;-78
2023/12/01 00:47:50;;;;;;;0.20;0.20;;;;;;;;;;6264255;28;20025;-78
2023/12/01 00:50:52;;;;;;;0.30;0.30;;;;;;;;;;6286198;28;20063;-78
2023/12/01 00:53:52;;;;;;;0.20;0.20;;;;;;;;;;6271218;28;20546;-78
2023/12/01 00:56:52;;;;;;;0.20;0.20;;;;;;;;;;6275885;28;20021;-78
2023/12/01 00:59:53;;;;;;;0.20;0.20;;;;;;;;;;6291775;28;20032;-78
2023/12/01 01:02:53;;;;;;;0.30;0.30;;;;;;;;;;6291614;28;20060;-82
2023/12/01 01:05:54;;;;;;;0.20;0.20;;;;;;;;;;6291443;28;20029;-82
2023/12/01 01:08:54;;;;;;;0.30;0.30;;;;;;;;;;6274909;28;20012;-82
2023/12/01 01:11:54;;;;;;;0.30;0.30;;;;;;;;;;6278353;28;20067;-82
2023/12/01 01:14:54;;;;;;;0.30;0.30;;;;;;;;;;6297045;28;20031;-82
2023/12/01 01:17:55;;;;;;;0.20;0.20;;;;;;;;;;6296502;28;20028;-82
2023/12/01 01:20:55;;;;;;;0.30;0.30;;;;;;;;;;6296253;28;20016;-82
2023/12/01 01:23:55;;;;;;;0.20;0.20;;;;;;;;;;6288238;28;20023;-82
2023/12/01 01:26:55;;;;;;;0.20;0.20;;;;;;;;;;6296731;28;20120;-82
2023/12/01 01:29:56;;;;;;;0.20;0.20;;;;;;;;;;6299034;28;20020;-83
2023/12/01 01:32:56;;;;;;;0.30;0.30;;;;;;;;;;6296812;28;20066;-79
2023/12/01 01:35:56;;;;;;;0.30;0.30;;;;;;;;;;6295788;28;20398;-79
2023/12/01 01:38:56;;;;;;;0.30;0.30;;;;;;;;;;6309954;28;20017;-79
2023/12/01 01:41:57;;;;;;;0.30;0.30;;;;;;;;;;6295902;28;20031;-78
2023/12/01 01:44:57;;;;;;;0.30;0.30;;;;;;;;;;6295611;28;20024;-78
2023/12/01 01:47:58;;;;;;;0.30;0.30;;;;;;;;;;6281419;28;20030;-78
2023/12/01 01:51:03;;;;;;;0.27;0.27;;;;;;;;;;6276812;28;20453;-79
2023/12/01 01:54:03;;;;;;;0.30;0.30;;;;;;;;;;6277204;28;20021;-79
2023/12/01 01:57:04;;;;;;;0.30;0.30;;;;;;;;;;6272441;28;20107;-79
2023/12/01 02:00:05;;;;;;;0.30;0.30;;;;;;;;;;6294811;28;20025;-79
2023/12/01 02:03:06;;;;;;;0.30;0.30;;;;;;;;;;6291991;28;20036;-83
2023/12/01 02:06:07;;;;;;;0.30;0.30;;;;;;;;;;6291463;28;20032;-83
2023/12/01 02:09:08;;;;;;;0.30;0.30;;;;;;;;;;6277501;28;20032;-83
2023/12/01 02:12:08;;;;;;;0.30;0.30;;;;;;;;;;6276614;28;20028;-83
2023/12/01 02:15:10;;;;;;;0.30;0.30;;;;;;;;;;6275430;28;20499;-83
2023/12/01 02:18:27;;;;;;;0.30;0.30;;;;;;;;;;6298750;28;20071;-83
2023/12/01 02:21:27;;;;;;;0.30;0.30;;;;;;;;;;6293485;28;20490;-84
2023/12/01 02:24:27;;;;;;;0.30;0.30;;;;;;;;;;6295109;28;20080;-83
2023/12/01 02:27:27;;;;;;;0.30;0.30;;;;;;;;;;6308682;28;20479;-83
2023/12/01 02:30:28;;;;;;;0.30;0.30;;;;;;;;;;6294783;28;20021;-84
2023/12/01 02:33:28;;;;;;;0.30;0.30;;;;;;;;;;6294991;28;20023;-84
2023/12/01 02:36:28;;;;;;;0.30;0.30;;;;;;;;;;6294241;28;20485;-84
2023/12/01 02:39:29;;;;;;;0.30;0.30;;;;;;;;;;6276236;28;20083;-84
2023/12/01 02:42:29;;;;;;;0.30;0.30;;;;;;;;;;6276358;28;20021;-84
2023/12/01 02:45:30;;;;;;;0.30;0.30;;;;;;;;;;6294616;28;20019;-84
2023/12/01 02:48:30;;;;;;;0.30;0.30;;;;;;;;;;6294226;28;20409;-84
2023/12/01 02:51:30;;;;;;;0.30;0.30;;;;;;;;;;6293873;28;20028;-83
2023/12/01 02:54:31;;;;;;;0.30;0.30;;;;;;;;;;6293718;28;20434;-84
2023/12/01 02:57:31;;;;;;;0.30;0.30;;;;;;;;;;6289852;28;20021;-84
2023/12/01 03:00:31;;;;;;;0.30;0.30;;;;;;;;;;6293476;28;20036;-84
2023/12/01 03:03:31;;;;;;;0.20;0.20;;;;;;;;;;6293904;28;20064;-84
2023/12/01 03:06:32;;;;;;;0.30;0.30;;;;;;;;;;6293978;28;20028;-84
2023/12/01 03:09:32;;;;;;;0.30;0.30;;;;;;;;;;6294086;28;20036;-84
2023/12/01 03:12:32;;;;;;;0.30;0.30;;;;;;;;;;6304541;28;20015;-83
2023/12/01 03:15:34;;;;;;;0.30;0.30;;;;;;;;;;6296718;28;20021;-84
2023/12/01 03:18:35;;;;;;;0.20;0.20;;;;;;;;;;6289956;28;20513;-84
2023/12/01 03:21:35;;;;;;;0.30;0.30;;;;;;;;;;6283791;28;20073;-81
2023/12/01 03:24:36;;;;;;;0.30;0.30;;;;;;;;;;6276963;28;20482;-81
2023/12/01 03:27:39;;;;;;;0.30;0.30;;;;;;;;;;6293575;28;20016;-81
2023/12/01 03:30:40;;;;;;;0.20;0.20;;;;;;;;;;6267789;28;20035;-82
2023/12/01 03:33:40;;;;;;;0.30;0.30;;;;;;;;;;6293174;28;20382;-82
2023/12/01 03:36:40;;;;;;;0.40;0.40;;;;;;;;;;6288795;28;20089;-82
2023/12/01 03:39:41;;;;;;;0.30;0.30;;;;;;;;;;6275537;28;20065;-82
2023/12/01 03:42:45;;;;;;;0.30;0.30;;;;;;;;;;6292745;28;20105;-82
2023/12/01 03:45:45;;;;;;;0.30;0.30;;;;;;;;;;6262105;28;20036;-82
2023/12/01 03:48:46;;;;;;;0.30;0.30;;;;;;;;;;6274402;28;20585;-83
2023/12/01 03:51:46;;;;;;;0.30;0.30;;;;;;;;;;6291995;28;20387;-83
2023/12/01 03:54:46;;;;;;;0.30;0.30;;;;;;;;;;6292572;28;20391;-82
2023/12/01 03:57:46;;;;;;;0.30;0.30;;;;;;;;;;6288330;28;20142;-83
2023/12/01 04:00:47;;;;;;;0.30;0.30;;;;;;;;;;6268153;28;20028;-83
2023/12/01 04:03:47;;;;;;;0.20;0.20;;;;;;;;;;6292483;28;20501;-83
2023/12/01 04:06:47;;;;;;;0.30;0.30;;;;;;;;;;6292007;28;20111;-83
2023/12/01 04:09:48;;;;;;;0.30;0.30;;;;;;;;;;6274488;28;20620;-83
2023/12/01 04:12:48;;;;;;;0.30;0.30;;;;;;;;;;6273766;28;20432;-83
2023/12/01 04:15:48;;;;;;;0.30;0.30;;;;;;;;;;6273829;28;20025;-84
2023/12/01 04:18:48;;;;;;;0.30;0.30;;;;;;;;;;6291800;28;20394;-84
2023/12/01 04:21:49;;;;;;;0.30;0.30;;;;;;;;;;6292003;28;20024;-85
2023/12/01 04:24:49;;;;;;;0.30;0.30;;;;;;;;;;6275628;28;20044;-85
2023/12/01 04:27:50;;;;;;;0.30;0.30;;;;;;;;;;6293092;28;20016;-85
2023/12/01 04:30:51;;;;;;;0.30;0.30;;;;;;;;;;6278346;28;20035;-85
2023/12/01 04:33:51;;;;;;;0.30;0.30;;;;;;;;;;6299297;28;20024;-85
2023/12/01 04:36:52;;;;;;;0.30;0.30;;;;;;;;;;6276292;28;20031;-85
2023/12/01 04:39:53;;;;;;;0.27;0.27;;;;;;;;;;6273598;28;20029;-85
2023/12/01 04:42:54;;;;;;;0.30;0.30;;;;;;;;;;6274790;28;20029;-84
2023/12/01 04:45:55;;;;;;;;;;;;;;;;;;6291707;28;20387;-84
2023/12/01 04:48:55;;;;;;;0.30;0.30;;;;;;;;;;6291482;28;19916;-84
2023/12/01 04:51:55;;;;;;;0.30;0.30;;;;;;;;;;6273098;28;20429;-84
2023/12/01 04:54:55;;;;;;;0.20;0.20;;;;;;;;;;6292623;28;20143;-83
2023/12/01 04:57:56;;;;;;;0.30;0.30;;;;;;;;;;6286705;28;20052;-83
2023/12/01 05:00:56;;;;;;;0.20;0.20;;;;;;;;;;6267640;28;20025;-84
2023/12/01 05:03:56;;;;;;;0.30;0.30;;;;;;;;;;6290728;28;20051;-83
2023/12/01 05:06:57;;;;;;;0.30;0.30;;;;;;;;;;6292190;28;20478;-84
2023/12/01 05:09:57;;;;;;;0.30;0.30;;;;;;;;;;6273322;28;20086;-84
2023/12/01 05:12:58;;;;;;;0.30;0.30;;;;;;;;;;6291183;28;20092;-84
2023/12/01 05:15:58;;;;;;;0.30;0.30;;;;;;;;;;6273110;28;20071;-84
2023/12/01 05:18:59;;;;;;;0.30;0.30;;;;;;;;;;6292168;28;20101;-84
2023/12/01 05:21:59;;;;;;;0.30;0.30;;;;;;;;;;6290875;28;20386;-84
2023/12/01 05:25:01;;;;;;;0.30;0.30;;;;;;;;;;6280237;28;20037;-84
2023/12/01 05:28:02;;;;;;;0.30;0.30;;;;;;;;;;6291325;28;20067;-83
2023/12/01 05:31:03;;;;;;;0.20;0.20;;;;;;;;;;6272143;28;20020;-84
2023/12/01 05:34:05;;;;;;;0.30;0.30;;;;;;;;;;6273374;28;20058;-84
2023/12/01 05:37:05;;;;;;;0.20;0.20;;;;;;;;;;6272955;28;20020;-84
2023/12/01 05:40:06;;;;;;;0.30;0.30;;;;;;;;;;6290341;28;20453;-84
2023/12/01 05:43:07;;;;;;;0.30;0.30;;;;;;;;;;6273819;28;20035;-84
2023/12/01 05:46:07;;;;;;;0.30;0.30;;;;;;;;;;6286592;28;20116;-84
2023/12/01 05:49:09;;;;;;;0.30;0.30;;;;;;;;;;6272357;28;20020;-84
2023/12/01 05:52:10;;;;;;;0.30;0.30;;;;;;;;;;6284121;28;20089;-83
2023/12/01 05:55:14;;;;;;;0.30;0.30;;;;;;;;;;6274062;28;20020;-83
2023/12/01 05:58:14;;;;;;;0.30;0.30;;;;;;;;;;6291305;28;20013;-83
2023/12/01 06:01:15;;;;;;;0.30;0.30;;;;;;;;;;6275843;28;20055;-82
2023/12/01 06:04:15;;;;;;;0.27;0.27;;;;;;;;;;6280878;28;20048;-82
2023/12/01 06:07:15;;;;;;;0.30;0.30;;;;;;;;;;6294799;28;20116;-83
2023/12/01 06:10:16;;;;;;;0.30;0.30;;;;;;;;;;6280146;28;20024;-84
2023/12/01 06:13:17;;;;;;;0.30;0.30;;;;;;;;;;6279643;28;20023;-86
2023/12/01 06:16:17;;;;;;;0.30;0.30;;;;;;;;;;6277426;28;20475;-86
2023/12/01 06:19:17;;;;;;;0.30;0.30;;;;;;;;;;6277658;28;20445;-86
2023/12/01 06:22:17;;;;;;;0.30;0.30;;;;;;;;;;6285604;28;20043;-86
2023/12/01 06:25:19;;;;;;;0.30;0.30;;;;;;;;;;6296505;28;20386;-86
2023/12/01 06:28:19;;;;;;;0.30;0.30;;;;;;;;;;6298682;28;20506;-85
2023/12/01 06:31:20;;;;;;;0.30;0.30;;;;;;;;;;6283597;28;20173;-85
2023/12/01 06:34:20;;;;;;;0.30;0.30;;;;;;;;;;6287390;28;20043;-84
2023/12/01 06:37:20;;;;;;;0.30;0.30;;;;;;;;;;6280455;28;20016;-84
2023/12/01 06:40:21;;;;;;;0.30;0.30;;;;;;;;;;6270874;28;20017;-85
2023/12/01 06:43:21;;;;;;;0.30;0.30;;;;;;;;;;6276862;28;20027;-84
2023/12/01 06:46:21;;;;;;;0.30;0.30;;;;;;;;;;6262177;28;20075;-84
2023/12/01 06:49:22;;;;;;;0.30;0.30;;;;;;;;;;6302230;28;20023;-84
2023/12/01 06:52:22;;;;;;;0.30;0.30;;;;;;;;;;6282124;28;20016;-85
2023/12/01 06:55:22;;;;;;;0.30;0.30;;;;;;;;;;6294071;28;20052;-84
2023/12/01 06:58:23;;;;;;;0.30;0.30;;;;;;;;;;6275979;28;20414;-84
2023/12/01 07:01:23;;;;;;;0.30;0.30;;;;;;;;;;6276680;28;20137;-85
2023/12/01 07:04:24;;;;;;;0.30;0.30;;;;;;;;;;6289592;28;20444;-84
2023/12/01 07:07:24;;;;;;;0.30;0.30;;;;;;;;;;6276962;28;20036;-84
2023/12/01 07:10:25;;;;;;;0.30;0.30;;;;;;;;;;6273883;28;20032;-84
2023/12/01 07:13:29;;;;;;;0.30;0.30;;;;;;;;;;6281069;28;20024;-84
2023/12/01 07:16:30;;;;;;;0.30;0.30;;;;;;;;;;6297025;28;20020;-84
2023/12/01 07:19:30;;;;;;;0.30;0.30;;;;;;;;;;6305157;28;20071;-85
2023/12/01 07:22:30;;;;;;;0.30;0.30;;;;;;;;;;6303975;28;20016;-84
2023/12/01 07:25:31;;;;;;;0.30;0.30;;;;;;;;;;6275203;28;20813;-84
2023/12/01 07:28:31;;;;;;;0.20;0.20;;;;;;;;;;6275835;28;20074;-84
2023/12/01 07:31:33;;;;;;;0.30;0.30;;;;;;;;;;6289725;28;20074;-85
2023/12/01 07:34:34;;;;;;;0.30;0.30;;;;;;;;;;6275577;28;20020;-85
2023/12/01 07:37:34;;;;;;;0.30;0.30;;;;;;;;;;6274802;28;20524;-85
2023/12/01 07:40:35;;;;;;;0.30;0.30;;;;;;;;;;6274478;28;20171;-85
2023/12/01 07:43:35;;;;;;;0.30;0.30;;;;;;;;;;6269196;28;20487;-84
2023/12/01 07:46:35;;;;;;;0.27;0.27;;;;;;;;;;6262634;28;20032;-84
2023/12/01 07:49:36;;;;;;;0.30;0.30;;;;;;;;;;6273204;28;20035;-84
2023/12/01 07:52:36;;;;;;;0.30;0.30;;;;;;;;;;6274290;28;20040;-84
2023/12/01 07:55:36;;;;;;;0.30;0.30;;;;;;;;;;6274515;28;20016;-84
2023/12/01 07:58:37;;;;;;;0.20;0.20;;;;;;;;;;6273807;28;20130;-84
2023/12/01 08:01:37;;;;;;;0.20;0.20;;;;;;;;;;6284942;28;20029;-84
2023/12/01 08:04:37;;;;;;;0.20;0.20;;;;;;;;;;6292363;28;20049;-84
2023/12/01 08:07:38;;;;;;;0.20;0.20;;;;;;;;;;6288918;28;20650;-84
2023/12/01 08:10:38;;;;;;;0.20;0.20;;;;;;;;;;6291493;28;20017;-84
2023/12/01 08:13:38;;;;;;;0.30;0.30;;;;;;;;;;6294726;28;20459;-86
2023/12/01 08:16:39;;;;;;;0.20;0.20;;;;;;;;;;6268249;28;20496;-86
2023/12/01 08:19:39;;;;;;;0.20;0.20;;;;;;;;;;6267409;28;20013;-87
2023/12/01 08:22:43;;;;;;;0.30;0.30;;;;;;;;;;6293475;28;20498;-84
2023/12/01 08:25:43;;;;;;;0.30;0.30;;;;;;;;;;6296653;28;20104;-84
2023/12/01 08:28:43;;;;;;;0.23;0.23;;;;;;;;;;6273480;28;20058;-83
2023/12/01 08:31:45;;;;;;;0.20;0.20;;;;;;;;;;6272550;28;20086;-84
2023/12/01 08:34:45;;;;;;;0.20;0.20;;;;;;;;;;6276192;28;20108;-84
2023/12/01 08:37:45;;;;;;;0.20;0.20;;;;;;;;;;6281871;28;20038;-84
2023/12/01 08:40:46;;;;;;;0.20;0.20;;;;;;;;;;6269305;28;20499;-84
2023/12/01 08:43:46;;;;;;;0.20;0.20;;;;;;;;;;6273978;28;20042;-84
2023/12/01 08:46:46;;;;;;;0.20;0.20;;;;;;;;;;6286775;28;20023;-85
2023/12/01 08:49:49;;;;;;;0.20;0.20;;;;;;;;;;6274069;28;20249;-84
2023/12/01 08:52:49;;;;;;;0.20;0.20;;;;;;;;;;6273558;28;20021;-84
2023/12/01 08:55:49;;;;;;;0.20;0.20;;;;;;;;;;6293025;28;20497;-84
2023/12/01 08:58:50;;;;;;;0.20;0.20;;;;;;;;;;6271757;28;20032;-84
2023/12/01 09:01:50;;;;;;;0.20;0.20;;;;;;;;;;6276327;28;20024;-84
2023/12/01 09:04:50;;;;;;;0.20;0.20;;;;;;;;;;6272873;28;20106;-85
2023/12/01 09:07:51;;;;;;;0.20;0.20;;;;;;;;;;6294906;28;20114;-85
2023/12/01 09:10:51;;;;;;;0.20;0.20;;;;;;;;;;6273221;28;20025;-86
2023/12/01 09:13:51;;;;;;;0.20;0.20;;;;;;;;;;6272479;28;20022;-86
2023/12/01 09:16:52;;;;;;;0.20;0.20;;;;;;;;;;6268442;28;20042;-87
2023/12/01 09:19:52;;;;;;;0.20;0.20;;;;;;;;;;6289360;28;20022;-87
2023/12/01 09:22:52;;;;;;;0.20;0.20;;;;;;;;;;6289543;28;20726;-87
2023/12/01 09:25:53;;;;;;;0.20;0.20;;;;;;;;;;6271506;28;20031;-87
2023/12/01 09:28:53;;;;;;;0.20;0.20;;;;;;;;;;6289719;28;20387;-88
2023/12/01 09:31:53;;;;;;;0.20;0.20;;;;;;;;;;6275731;28;20107;-88
2023/12/01 09:34:53;;;;;;;0.20;0.20;;;;;;;;;;6294725;28;20016;-88
2023/12/01 09:37:54;;;;;;;0.20;0.20;;;;;;;;;;6295294;28;20467;-88
2023/12/01 09:40:54;;;;;;;0.20;0.20;;;;;;;;;;6277035;28;20383;-88
2023/12/01 09:43:55;;;;;;;0.20;0.20;;;;;;;;;;6279215;28;20012;-87
2023/12/01 09:46:55;;;;;;;0.20;0.20;;;;;;;;;;6278441;28;20386;-87
2023/12/01 09:49:56;;;;;;;0.20;0.20;;;;;;;;;;6278695;28;20398;-87
2023/12/01 09:52:56;;;;;;;0.20;0.20;;;;;;;;;;6274130;28;20064;-87
2023/12/01 09:55:57;;;;;;;0.20;0.20;;;;;;;;;;6289468;28;20012;-87
2023/12/01 09:58:57;;;;;;;0.20;0.20;;;;;;;;;;6295136;28;20017;-87
2023/12/01 10:01:58;;;;;;;0.20;0.20;;;;;;;;;;6277727;28;20446;-86
2023/12/01 10:05:01;;;;;;;0.20;0.20;;;;;;;;;;6277143;28;20582;-86
2023/12/01 10:08:04;;;;;;;0.20;0.20;;;;;;;;;;6275089;28;20343;-85
2023/12/01 10:11:30;;;;;;;0.20;0.20;;;;;;;;;;6270469;28;20016;-85
2023/12/01 10:14:32;;;;;;;0.20;0.20;;;;;;;;;;6291093;28;20513;-84
2023/12/01 10:17:32;;;;;;;0.20;0.20;;;;;;;;;;6292576;28;20024;-84
2023/12/01 10:20:32;;;;;;;0.20;0.20;;;;;;;;;;6292666;28;20059;-83
2023/12/01 10:23:33;;;;;;;0.20;0.20;;;;;;;;;;6294305;28;20015;-83
2023/12/01 10:26:34;;;;;;;0.20;0.20;;;;;;;;;;6276654;28;20032;-82
2023/12/01 10:29:34;;;;;;;0.20;0.20;;;;;;;;;;6276457;28;20052;-83
2023/12/01 10:32:35;;;;;;;0.20;0.20;;;;;;;;;;6275823;28;20052;-82
2023/12/01 10:35:36;;;;;;;0.20;0.20;;;;;;;;;;6275080;28;20727;-82
2023/12/01 10:38:36;;;;;;;0.20;0.20;;;;;;;;;;6300482;28;20040;-82
2023/12/01 10:41:39;;;;;;;0.20;0.20;;;;;;;;;;6287188;28;20104;-82
2023/12/01 10:44:41;;;;;;;0.20;0.20;;;;;;;;;;6276158;28;20394;-81
2023/12/01 10:47:44;;;;;;;0.20;0.20;;;;;;;;;;6294990;28;20052;-81
2023/12/01 10:50:45;;;;;;;0.20;0.20;;;;;;;;;;6293880;28;20013;-80
2023/12/01 10:53:46;;;;;;;0.20;0.20;;;;;;;;;;6296516;28;20378;-80
2023/12/01 10:57:10;;;;;;;0.20;0.20;;;;;;;;;;6276292;28;20060;-80
2023/12/01 11:00:29;;;;;;;0.20;0.20;;;;;;;;;;6276003;28;20070;-79
2023/12/01 11:03:30;;;;;;;0.20;0.20;;;;;;;;;;6293334;28;20144;-79
2023/12/01 11:06:46;;;;;;;0.20;0.20;;;;;;;;;;6296609;28;20020;-78
2023/12/01 11:09:46;;;;;;;0.20;0.20;;;;;;;;;;6297360;28;20442;-78
2023/12/01 11:12:52;;;;;;;0.20;0.20;;;;;;;;;;6294813;28;20016;-78
2023/12/01 11:15:53;;;;;;;0.20;0.20;;;;;;;;;;6293529;28;20143;-78
2023/12/01 11:18:57;;;;;;;0.20;0.20;;;;;;;;;;6289814;28;20013;-77
2023/12/01 11:21:58;;;;;;;0.20;0.20;;;;;;;;;;6293540;28;20027;-78
2023/12/01 11:24:58;;;;;;;0.20;0.20;;;;;;;;;;6292669;28;20501;-77
2023/12/01 11:27:58;;;;;;;0.20;0.20;;;;;;;;;;6277326;28;20497;-77
2023/12/01 11:31:08;;;;;;;0.20;0.20;;;;;;;;;;6299779;28;20107;-77
2023/12/01 11:34:12;;;;;;;0.20;0.20;;;;;;;;;;6292489;28;20111;-77
2023/12/01 11:37:12;;;;;;;0.20;0.20;;;;;;;;;;6297643;28;20104;-77
2023/12/01 11:40:19;;;;;;;0.20;0.20;;;;;;;;;;6276356;28;20029;-77
2023/12/01 11:43:21;;;;;;;0.20;0.20;;;;;;;;;;6297609;28;20559;-77
2023/12/01 11:46:21;;;;;;;0.20;0.20;;;;;;;;;;6292365;28;20466;-77
2023/12/01 11:49:26;;;;;;;0.20;0.20;;;;;;;;;;6293080;28;20469;-77
2023/12/01 11:52:26;;;;;;;0.20;0.20;;;;;;;;;;6292851;28;20024;-77
2023/12/01 11:55:26;;;;;;;0.20;0.20;;;;;;;;;;6283271;28;20020;-77
2023/12/01 11:58:27;;;;;;;0.20;0.20;;;;;;;;;;6292372;28;20103;-77
2023/12/01 12:01:28;;;;;;;0.20;0.20;;;;;;;;;;6274430;28;20811;-77
2023/12/01 12:04:29;;;;;;;0.20;0.20;;;;;;;;;;6294667;28;20434;-77
2023/12/01 12:07:29;;;;;;;0.20;0.20;;;;;;;;;;6291967;28;20039;-77
2023/12/01 12:10:29;;;;;;;0.20;0.20;;;;;;;;;;6273633;28;20550;-77
2023/12/01 12:13:30;;;;;;;0.20;0.20;;;;;;;;;;6275073;28;20020;-78
2023/12/01 12:16:30;;;;;;;0.20;0.20;;;;;;;;;;6292134;28;20561;-77
2023/12/01 12:19:43;;;;;;;0.20;0.20;;;;;;;;;;6289415;28;20157;-77
2023/12/01 12:22:43;;;;;;;0.20;0.20;;;;;;;;;;6294827;28;20455;-77
2023/12/01 12:25:46;;;;;;;0.20;0.20;;;;;;;;;;6273497;28;20047;-77
2023/12/01 12:28:52;;;;;;;0.20;0.20;;;;;;;;;;6292448;28;20506;-77
2023/12/01 12:31:52;;;;;;;0.20;0.20;;;;;;;;;;6291696;28;20074;-77
2023/12/01 12:34:52;;;;;;;0.20;0.20;;;;;;;;;;6273494;28;20467;-78
2023/12/01 12:37:53;;;;;;;0.20;0.20;;;;;;;;;;6299854;28;20016;-78
2023/12/01 12:40:54;;;;;;;0.20;0.20;;;;;;;;;;6295312;28;20025;-78
2023/12/01 12:44:00;;;;;;;0.20;0.20;;;;;;;;;;6292176;28;20025;-78
2023/12/01 12:47:02;;;;;;;0.20;0.20;;;;;;;;;;6291623;28;20501;-78
2023/12/01 12:50:04;;;;;;;0.20;0.20;;;;;;;;;;6287158;28;20029;-77
2023/12/01 12:53:05;;;;;;;0.20;0.20;;;;;;;;;;6293212;28;20024;-78
2023/12/01 12:56:09;;;;;;;0.20;0.20;;;;;;;;;;6288750;28;20434;-78
2023/12/01 12:59:10;;;;;;;0.20;0.20;;;;;;;;;;6272849;28;20497;-78
2023/12/01 13:02:10;;;;;;;0.20;0.20;;;;;;;;;;6273487;28;20028;-78
2023/12/01 13:05:10;;;;;;;0.20;0.20;;;;;;;;;;6293072;28;20024;-78
2023/12/01 13:08:11;;;;;;;0.20;0.20;;;;;;;;;;6277881;28;20108;-78
2023/12/01 13:11:11;;;;;;;0.20;0.20;;;;;;;;;;6298659;28;20359;-77
2023/12/01 13:14:13;;;;;;;0.20;0.20;;;;;;;;;;6296395;28;20066;-78
2023/12/01 13:17:13;;;;;;;;;;;;;;;;;;6296086;28;20066;-79
2023/12/01 13:20:14;;;;;;;0.20;0.20;;;;;;;;;;6292958;28;19920;-78
2023/12/01 13:23:14;;;;;;;0.20;0.20;;;;;;;;;;6277457;28;20017;-78
2023/12/01 13:26:16;;;;;;;0.20;0.20;;;;;;;;;;6282518;28;20418;-78
2023/12/01 13:29:16;;;;;;;0.20;0.20;;;;;;;;;;6277931;28;20133;-78
2023/12/01 13:32:16;;;;;;;0.20;0.20;;;;;;;;;;6285534;28;20475;-78
2023/12/01 13:35:17;;;;;;;0.20;0.20;;;;;;;;;;6294725;28;20540;-78
2023/12/01 13:38:17;;;;;;;0.20;0.20;;;;;;;;;;6275144;28;20017;-78
2023/12/01 13:41:19;;;;;;;0.20;0.20;;;;;;;;;;6296015;28;20027;-79
2023/12/01 13:44:19;;;;;;;0.20;0.20;;;;;;;;;;6280520;28;20020;-78
2023/12/01 13:47:20;;;;;;;0.20;0.20;;;;;;;;;;6274635;28;20295;-78
2023/12/01 13:50:20;;;;;;;0.20;0.20;;;;;;;;;;6303476;28;20506;-78
2023/12/01 13:53:20;;;;;;;0.20;0.20;;;;;;;;;;6275410;28;20094;-78
2023/12/01 13:56:21;;;;;;;0.20;0.20;;;;;;;;;;6292977;28;20123;-78
2023/12/01 13:59:21;;;;;;;0.20;0.20;;;;;;;;;;6286427;28;20036;-78
2023/12/01 14:02:22;;;;;;;0.20;0.20;;;;;;;;;;6289963;28;20040;-78
2023/12/01 14:05:22;;;;;;;0.20;0.20;;;;;;;;;;6282076;28;20075;-78
2023/12/01 14:08:24;;;;;;;0.20;0.20;;;;;;;;;;6295703;28;20502;-78
2023/12/01 14:11:25;;;;;;;0.20;0.20;;;;;;;;;;6287148;28;20123;-78
2023/12/01 14:14:25;;;;;;;0.20;0.20;;;;;;;;;;6285199;28;20487;-78
2023/12/01 14:17:25;;;;;;;0.20;0.20;;;;;;;;;;6265108;28;20027;-78
2023/12/01 14:20:26;;;;;;;0.20;0.20;;;;;;;;;;6279912;28;20024;-78
2023/12/01 14:23:27;;;;;;;0.20;0.20;;;;;;;;;;6298629;28;20625;-78
2023/12/01 14:26:27;;;;;;;0.20;0.20;;;;;;;;;;6275367;28;20024;-78
2023/12/01 14:29:28;;;;;;;0.20;0.20;;;;;;;;;;6274976;28;20513;-79
2023/12/01 14:32:28;;;;;;;0.20;0.20;;;;;;;;;;6283172;28;20031;-78
2023/12/01 14:35:29;;;;;;;0.20;0.20;;;;;;;;;;6274737;28;20087;-78
2023/12/01 14:38:29;;;;;;;0.20;0.20;;;;;;;;;;6280136;28;20367;-79
2023/12/01 14:41:29;;;;;;;0.20;0.20;;;;;;;;;;6293784;28;20031;-79
2023/12/01 14:44:30;;;;;;;0.20;0.20;;;;;;;;;;6291559;28;20086;-78
2023/12/01 14:47:30;;;;;;;0.20;0.20;;;;;;;;;;6292772;28;20047;-79
2023/12/01 14:50:30;;;;;;;0.20;0.20;;;;;;;;;;6292361;28;20497;-78
2023/12/01 14:53:31;;;;;;;0.20;0.20;;;;;;;;;;6291232;28;20386;-79
2023/12/01 14:56:35;;;;;;;0.20;0.20;;;;;;;;;;6294600;28;20371;-78
2023/12/01 14:59:35;;;;;;;0.20;0.20;;;;;;;;;;6304797;28;20059;-79
2023/12/01 15:02:36;;;;;;;0.23;0.23;;;;;;;;;;6290624;28;20429;-78
2023/12/01 15:05:37;;;;;;;0.20;0.20;;;;;;;;;;6296931;28;20029;-78
2023/12/01 15:08:37;;;;;;;0.20;0.20;;;;;;;;;;6292130;28;20028;-78
2023/12/01 15:11:41;;;;;;;0.20;0.20;;;;;;;;;;6294944;28;20024;-78
2023/12/01 15:14:41;;;;;;;0.20;0.20;;;;;;;;;;6294795;28;20418;-78
2023/12/01 15:17:42;;;;;;;0.20;0.20;;;;;;;;;;6271614;28;20147;-78
2023/12/01 15:20:42;;;;;;;0.20;0.20;;;;;;;;;;6289845;28;20017;-79
2023/12/01 15:23:42;;;;;;;0.20;0.20;;;;;;;;;;6285847;28;20021;-79
2023/12/01 15:26:44;;;;;;;0.20;0.20;;;;;;;;;;6264559;28;20024;-79
2023/12/01 15:29:44;;;;;;;0.20;0.20;;;;;;;;;;6293186;28;20035;-78
2023/12/01 15:32:44;;;;;;;0.20;0.20;;;;;;;;;;6292761;28;20474;-78
2023/12/01 15:35:47;;;;;;;0.20;0.20;;;;;;;;;;6275985;28;20518;-78
2023/12/01 15:38:47;;;;;;;0.20;0.20;;;;;;;;;;6284097;28;20029;-79
2023/12/01 15:41:47;;;;;;;0.20;0.20;;;;;;;;;;6277870;28;20123;-79
2023/12/01 15:44:50;;;;;;;0.20;0.20;;;;;;;;;;6290781;28;20107;-79
2023/12/01 15:47:51;;;;;;;0.20;0.20;;;;;;;;;;6294670;28;20494;-79
2023/12/01 15:50:51;;;;;;;0.20;0.20;;;;;;;;;;6295445;28;20024;-79
2023/12/01 15:53:52;;;;;;;0.30;0.30;;;;;;;;;;6292565;28;20021;-79
2023/12/01 15:56:52;;;;;;;0.30;0.30;;;;;;;;;;6292485;28;20037;-79
2023/12/01 15:59:53;;;;;;;0.20;0.20;;;;;;;;;;6290298;28;20024;-79
2023/12/01 16:02:53;;;;;;;0.30;0.30;;;;;;;;;;6291102;28;20491;-79
2023/12/01 16:05:54;;;;;;;0.20;0.20;;;;;;;;;;6285925;28;20048;-79
2023/12/01 16:08:54;;;;;;;0.20;0.20;;;;;;;;;;6268058;28;20111;-79
2023/12/01 16:11:55;;;;;;;0.20;0.20;;;;;;;;;;6274170;28;20047;-79
2023/12/01 16:14:55;;;;;;;0.20;0.20;;;;;;;;;;6290934;28;20058;-79
2023/12/01 16:17:56;;;;;;;0.20;0.20;;;;;;;;;;6271815;28;20463;-79
2023/12/01 16:20:57;;;;;;;0.20;0.20;;;;;;;;;;6288116;28;20119;-79
2023/12/01 16:23:57;;;;;;;0.30;0.30;;;;;;;;;;6275982;28;20480;-79
2023/12/01 16:26:57;;;;;;;0.20;0.20;;;;;;;;;;6299289;28;20476;-79
2023/12/01 16:29:58;;;;;;;0.30;0.30;;;;;;;;;;6303106;28;20123;-79
2023/12/01 16:32:59;;;;;;;0.30;0.30;;;;;;;;;;6293316;28;20024;-79
2023/12/01 16:36:00;;;;;;;0.20;0.20;;;;;;;;;;6290630;28;20501;-79
2023/12/01 16:39:00;;;;;;;0.20;0.20;;;;;;;;;;6269932;28;20017;-79
2023/12/01 16:42:05;;;;;;;0.20;0.20;;;;;;;;;;6272684;28;20013;-79
2023/12/01 16:45:06;;;;;;;0.20;0.20;;;;;;;;;;6287109;28;20024;-79
2023/12/01 16:48:06;;;;;;;0.23;0.23;;;;;;;;;;6285583;28;20012;-79
2023/12/01 16:51:07;;;;;;;0.20;0.20;;;;;;;;;;6297272;28;20015;-79
2023/12/01 16:54:07;;;;;;;0.20;0.20;;;;;;;;;;6307943;28;20017;-79
2023/12/01 16:57:07;;;;;;;0.20;0.20;;;;;;;;;;6286377;28;20017;-80
2023/12/01 17:00:08;;;;;;;0.20;0.20;;;;;;;;;;6287564;28;20029;-80
2023/12/01 17:03:08;;;;;;;0.20;0.20;;;;;;;;;;6271006;28;20835;-80
2023/12/01 17:06:10;;;;;;;0.20;0.20;;;;;;;;;;6288851;28;20545;-80
2023/12/01 17:09:12;;;;;;;0.20;0.20;;;;;;;;;;6292421;28;20511;-80
2023/12/01 17:12:12;;;;;;;0.20;0.20;;;;;;;;;;6292223;28;20027;-80
2023/12/01 17:15:13;;;;;;;0.30;0.30;;;;;;;;;;6274436;28;20048;-80
2023/12/01 17:18:14;;;;;;;0.20;0.20;;;;;;;;;;6276379;28;20029;-80
2023/12/01 17:21:15;;;;;;;0.20;0.20;;;;;;;;;;6277115;28;20016;-79
2023/12/01 17:24:16;;;;;;;0.20;0.20;;;;;;;;;;6295638;28;20095;-80
2023/12/01 17:27:16;;;;;;;0.20;0.20;;;;;;;;;;6280829;28;20079;-80
2023/12/01 17:30:17;;;;;;;0.30;0.30;;;;;;;;;;6290168;28;20016;-80
2023/12/01 17:33:17;;;;;;;0.20;0.20;;;;;;;;;;6280454;28;20252;-80
2023/12/01 17:36:17;;;;;;;0.20;0.20;;;;;;;;;;6289906;28;20422;-80
2023/12/01 17:39:19;;;;;;;0.20;0.20;;;;;;;;;;6257586;28;20035;-80
2023/12/01 17:42:21;;;;;;;0.30;0.30;;;;;;;;;;6266871;28;20471;-80
2023/12/01 17:45:21;;;;;;;;;;;;;;;;;;6264317;28;20027;-81
2023/12/01 17:48:21;;;;;;;0.20;0.20;;;;;;;;;;6291024;28;19908;-81
2023/12/01 17:51:23;;;;;;;0.20;0.20;;;;;;;;;;6273879;28;20017;-81
2023/12/01 17:54:23;;;;;;;0.20;0.20;;;;;;;;;;6292421;28;20135;-81
2023/12/01 17:57:23;;;;;;;0.27;0.27;;;;;;;;;;6269713;28;20020;-80
2023/12/01 18:00:24;;;;;;;0.30;0.30;;;;;;;;;;6269612;28;20441;-81
2023/12/01 18:03:24;;;;;;;0.30;0.30;;;;;;;;;;6291558;28;20131;-80
2023/12/01 18:06:24;;;;;;;0.20;0.20;;;;;;;;;;6295669;28;20028;-81